Time;durP1;ratioP1;P1;durP2;ratioP2;P2;SDS_P1;SDS_P2;PMS_P1;PMS_P2;Temp;Humidity;BMP_temperature;BMP_pressure;BME280_temperature;BME280_humidity;BME280_pressure;Samples;Min_cycle;Max_cycle;Signal;HPM_P1;HPM_P2
2022/02/17 00:02:21;;;;;;;1.95;0.47;;;13.30;99.90;;;;;;4995444;28;20026;-75
2022/02/17 00:04:46;;;;;;;2.55;0.50;;;13.30;99.90;;;;;;5012974;28;20038;-75
2022/02/17 00:07:12;;;;;;;2.50;0.50;;;13.20;99.90;;;;;;5012774;28;20033;-74
2022/02/17 00:09:39;;;;;;;2.53;0.38;;;13.10;99.90;;;;;;5012622;28;20038;-75
2022/02/17 00:12:06;;;;;;;1.60;0.65;;;13.10;99.90;;;;;;5012929;28;20014;-74
2022/02/17 00:14:32;;;;;;;2.05;0.52;;;13.00;99.90;;;;;;5012598;28;20133;-75
2022/02/17 00:16:57;;;;;;;6.25;1.08;;;13.00;99.90;;;;;;5012434;28;20116;-75
2022/02/17 00:19:23;;;;;;;4.18;0.70;;;12.90;99.90;;;;;;5012406;28;20045;-74
2022/02/17 00:21:49;;;;;;;2.53;0.52;;;12.90;99.90;;;;;;5012593;28;20037;-75
2022/02/17 00:24:18;;;;;;;2.88;0.60;;;12.90;99.90;;;;;;4995417;28;20462;-74
2022/02/17 00:26:44;;;;;;;2.03;0.65;;;12.90;99.90;;;;;;5012376;28;20490;-75
2022/02/17 00:29:10;;;;;;;2.55;0.75;;;12.90;99.90;;;;;;5012444;28;20030;-75
2022/02/17 00:31:36;;;;;;;4.82;0.90;;;12.80;99.90;;;;;;5012347;28;20442;-75
2022/02/17 00:34:02;;;;;;;5.93;1.13;;;12.80;99.40;;;;;;5012296;28;20046;-74
2022/02/17 00:36:27;;;;;;;6.53;1.38;;;12.70;98.70;;;;;;5014031;28;20046;-74
2022/02/17 00:38:54;;;;;;;5.32;1.10;;;12.60;98.40;;;;;;5013469;28;20072;-76
2022/02/17 00:41:19;;;;;;;6.35;0.95;;;12.60;98.60;;;;;;5012226;28;20034;-74
2022/02/17 00:43:47;;;;;;;4.32;1.25;;;12.60;99.00;;;;;;5011978;28;20516;-76
2022/02/17 00:46:13;;;;;;;8.97;0.80;;;12.60;99.20;;;;;;5011825;28;20466;-75
2022/02/17 00:48:38;;;;;;;4.10;1.08;;;12.50;99.40;;;;;;5011850;28;20030;-76
2022/02/17 00:51:05;;;;;;;4.65;0.82;;;12.60;99.70;;;;;;5012455;28;20037;-75
2022/02/17 00:53:30;;;;;;;5.72;0.80;;;12.70;99.80;;;;;;5011839;28;20038;-75
2022/02/17 00:55:56;;;;;;;2.92;1.00;;;12.60;99.90;;;;;;5011843;28;20029;-76
2022/02/17 00:58:22;;;;;;;3.85;0.88;;;12.60;99.90;;;;;;5011803;28;20034;-76
2022/02/17 01:00:47;;;;;;;4.60;1.05;;;12.60;99.90;;;;;;5011653;28;20057;-76
2022/02/17 01:03:13;;;;;;;9.48;1.73;;;12.50;99.70;;;;;;5012176;28;20026;-76
2022/02/17 01:05:39;;;;;;;8.02;1.17;;;12.60;99.70;;;;;;5011799;28;20374;-76
2022/02/17 01:08:04;;;;;;;12.70;1.92;;;12.60;99.10;;;;;;5011603;28;20038;-76
2022/02/17 01:10:31;;;;;;;8.10;1.38;;;12.60;97.50;;;;;;5011657;28;20336;-76
2022/02/17 01:12:57;;;;;;;7.72;1.95;;;12.60;96.50;;;;;;4994020;28;20113;-75
2022/02/17 01:15:23;;;;;;;11.93;1.77;;;12.70;96.20;;;;;;5011831;28;20029;-75
2022/02/17 01:17:49;;;;;;;8.18;1.73;;;12.60;95.50;;;;;;5011477;28;20034;-75
2022/02/17 01:20:14;;;;;;;12.13;1.75;;;12.60;95.80;;;;;;5011512;28;20030;-75
2022/02/17 01:22:45;;;;;;;10.52;1.95;;;12.60;95.60;;;;;;5011341;28;20038;-75
2022/02/17 01:25:11;;;;;;;11.77;1.88;;;12.60;95.40;;;;;;5011377;28;20026;-74
2022/02/17 01:27:37;;;;;;;13.75;1.85;;;12.60;95.30;;;;;;5011151;28;20018;-73
2022/02/17 01:30:04;;;;;;;11.63;1.70;;;12.50;95.20;;;;;;5011744;28;20452;-74
2022/02/17 01:32:29;;;;;;;9.70;1.40;;;12.60;94.90;;;;;;5011246;28;20483;-75
2022/02/17 01:34:55;;;;;;;11.38;1.50;;;12.50;95.00;;;;;;5010892;28;20075;-75
2022/02/17 01:37:20;;;;;;;14.77;2.33;;;12.50;94.70;;;;;;5011300;28;20037;-75
2022/02/17 01:39:46;;;;;;;10.95;1.75;;;12.50;94.60;;;;;;5011171;28;20030;-75
2022/02/17 01:42:11;;;;;;;9.98;1.90;;;12.60;94.30;;;;;;5011589;28;20338;-74
2022/02/17 01:44:38;;;;;;;6.93;1.65;;;12.60;94.10;;;;;;5011139;28;20026;-75
2022/02/17 01:47:12;;;;;;;11.63;1.58;;;12.60;94.20;;;;;;5014227;28;20026;-75
2022/02/17 01:49:39;;;;;;;9.43;1.55;;;12.60;94.00;;;;;;5015207;28;20042;-74
2022/02/17 01:52:05;;;;;;;5.72;1.40;;;12.50;93.70;;;;;;5015265;28;20108;-74
2022/02/17 01:54:32;;;;;;;5.97;1.15;;;12.60;93.60;;;;;;5015601;28;20030;-74
2022/02/17 01:56:59;;;;;;;11.55;2.33;;;12.60;93.50;;;;;;5014900;28;20034;-74
2022/02/17 01:59:25;;;;;;;12.50;2.70;;;12.60;93.00;;;;;;5014811;28;20042;-74
2022/02/17 02:01:50;;;;;;;7.93;2.00;;;12.60;92.80;;;;;;5015016;28;20030;-74
2022/02/17 02:04:16;;;;;;;10.00;1.40;;;12.60;93.10;;;;;;5014887;28;20022;-74
2022/02/17 02:06:42;;;;;;;12.00;2.13;;;12.60;93.40;;;;;;5015167;28;20018;-74
2022/02/17 02:09:07;;;;;;;17.73;2.75;;;12.60;94.30;;;;;;5015158;28;20057;-73
2022/02/17 02:11:33;;;;;;;9.68;1.92;;;12.50;94.80;;;;;;4997431;28;20036;-73
2022/02/17 02:13:59;;;;;;;10.32;2.45;;;12.40;94.90;;;;;;5014698;28;20060;-73
2022/02/17 02:16:25;;;;;;;13.35;2.08;;;12.40;94.80;;;;;;5014973;28;20041;-73
2022/02/17 02:18:50;;;;;;;8.23;1.25;;;12.40;94.00;;;;;;5014867;28;20026;-74
2022/02/17 02:21:20;;;;;;;5.43;1.50;;;12.30;92.90;;;;;;5015421;28;20097;-75
2022/02/17 02:23:46;;;;;;;9.55;1.83;;;12.30;92.60;;;;;;5014572;28;20046;-74
2022/02/17 02:26:11;;;;;;;10.05;1.92;;;12.30;92.50;;;;;;5014401;28;20048;-74
2022/02/17 02:28:39;;;;;;;13.27;1.85;;;12.20;92.10;;;;;;5014402;28;20696;-74
2022/02/17 02:31:05;;;;;;;;;;;12.20;92.00;;;;;;5014779;28;20600;-74
2022/02/17 02:33:31;;;;;;;16.02;1.73;;;12.20;91.70;;;;;;4997204;28;19913;-74
2022/02/17 02:35:57;;;;;;;11.93;1.90;;;12.20;91.90;;;;;;5023490;28;20037;-74
2022/02/17 02:38:22;;;;;;;10.48;2.17;;;12.10;92.10;;;;;;5016525;28;20083;-75
2022/02/17 02:40:48;;;;;;;12.00;2.08;;;12.10;92.00;;;;;;5033887;28;20034;-75
2022/02/17 02:43:14;;;;;;;23.88;3.25;;;12.10;92.00;;;;;;5016536;28;20061;-75
2022/02/17 02:45:40;;;;;;;16.83;2.10;;;12.10;91.90;;;;;;5033927;28;20048;-74
2022/02/17 02:48:10;;;;;;;11.70;2.00;;;12.10;92.10;;;;;;5034202;28;20075;-74
2022/02/17 02:50:37;;;;;;;10.05;2.03;;;12.10;92.10;;;;;;5033958;28;20022;-75
2022/02/17 02:53:04;;;;;;;16.27;2.33;;;12.10;92.20;;;;;;5033707;28;20033;-75
2022/02/17 02:55:30;;;;;;;7.80;1.60;;;12.10;92.30;;;;;;5033719;28;20457;-75
2022/02/17 02:57:58;;;;;;;6.82;1.67;;;12.10;92.30;;;;;;5032948;28;20069;-75
2022/02/17 03:00:24;;;;;;;13.47;2.53;;;12.10;92.40;;;;;;5034170;28;20033;-75
2022/02/17 03:02:50;;;;;;;12.50;2.08;;;12.20;92.40;;;;;;5033693;28;20268;-74
2022/02/17 03:05:15;;;;;;;12.00;1.55;;;12.20;92.60;;;;;;5033506;28;20043;-74
2022/02/17 03:07:41;;;;;;;10.68;2.05;;;12.20;92.70;;;;;;5033449;28;20057;-73
2022/02/17 03:10:07;;;;;;;9.60;1.75;;;12.20;92.70;;;;;;5033977;28;20022;-74
2022/02/17 03:12:34;;;;;;;10.95;1.77;;;12.20;92.50;;;;;;5034058;28;20033;-74
2022/02/17 03:15:00;;;;;;;9.95;1.83;;;12.00;92.50;;;;;;5033323;28;20025;-74
2022/02/17 03:17:26;;;;;;;9.73;1.20;;;11.70;92.80;;;;;;5033716;28;20474;-74
2022/02/17 03:19:51;;;;;;;8.73;1.55;;;11.50;93.20;;;;;;5033386;28;20362;-74
2022/02/17 03:22:17;;;;;;;19.27;1.90;;;11.50;93.50;;;;;;5033336;28;20038;-74
2022/02/17 03:24:43;;;;;;;16.75;2.00;;;11.40;93.70;;;;;;5033076;28;20036;-74
2022/02/17 03:27:08;;;;;;;13.95;2.13;;;11.50;94.00;;;;;;5033633;28;20036;-74
2022/02/17 03:29:34;;;;;;;10.63;1.83;;;11.40;94.30;;;;;;5032872;28;20361;-75
2022/02/17 03:32:02;;;;;;;12.45;1.73;;;11.20;94.00;;;;;;5033437;28;20037;-73
2022/02/17 03:34:28;;;;;;;10.45;2.03;;;11.20;93.80;;;;;;5032867;28;20061;-75
2022/02/17 03:36:53;;;;;;;16.92;2.63;;;11.30;93.40;;;;;;5033140;28;20323;-74
2022/02/17 03:39:19;;;;;;;15.20;2.05;;;11.30;93.70;;;;;;5033512;28;20033;-75
2022/02/17 03:41:46;;;;;;;15.65;2.30;;;11.20;93.30;;;;;;5015308;28;20584;-75
2022/02/17 03:44:15;;;;;;;8.18;2.28;;;11.20;92.60;;;;;;5032870;28;20095;-75
2022/02/17 03:46:42;;;;;;;13.65;2.55;;;11.30;92.10;;;;;;5015530;28;20033;-74
2022/02/17 03:49:07;;;;;;;14.18;2.25;;;11.30;91.10;;;;;;5032972;28;20087;-75
2022/02/17 03:51:33;;;;;;;11.02;1.55;;;11.30;90.00;;;;;;5033390;28;20113;-76
2022/02/17 03:53:59;;;;;;;13.55;2.08;;;11.30;88.50;;;;;;5015135;28;20044;-74
2022/02/17 03:56:24;;;;;;;16.50;2.45;;;11.30;88.20;;;;;;5032666;28;20044;-75
2022/02/17 03:59:03;;;;;;;20.98;2.72;;;11.30;88.00;;;;;;5032708;28;20036;-75
2022/02/17 04:01:30;;;;;;;14.05;2.30;;;11.20;87.70;;;;;;5015365;28;20028;-75
2022/02/17 04:03:56;;;;;;;12.48;1.80;;;11.20;88.20;;;;;;5032872;28;20041;-75
2022/02/17 04:06:22;;;;;;;17.88;2.60;;;11.20;88.40;;;;;;5033007;28;20060;-75
2022/02/17 04:08:48;;;;;;;14.77;2.10;;;11.10;88.60;;;;;;5014655;28;20033;-75
2022/02/17 04:11:13;;;;;;;9.32;1.95;;;11.10;88.90;;;;;;5032123;28;20302;-75
2022/02/17 04:13:39;;;;;;;10.10;1.67;;;11.10;88.80;;;;;;5014642;28;20033;-73
2022/02/17 04:16:05;;;;;;;14.73;2.40;;;11.10;88.80;;;;;;5032058;28;20026;-75
2022/02/17 04:21:53;;;;;;;13.70;2.15;;;11.10;89.10;;;;;;5031858;28;20044;-75
2022/02/17 04:24:19;;;;;;;14.73;2.50;;;11.10;88.80;;;;;;5032455;28;20030;-76
2022/02/17 04:26:45;;;;;;;15.88;2.10;;;11.10;87.80;;;;;;5032156;28;20098;-76
2022/02/17 04:29:10;;;;;;;13.52;1.70;;;11.10;87.20;;;;;;5031991;28;20110;-75
2022/02/17 04:31:36;;;;;;;14.13;2.05;;;11.10;87.30;;;;;;5014481;28;20475;-74
2022/02/17 04:34:02;;;;;;;15.60;2.97;;;11.10;87.30;;;;;;5031650;28;20040;-74
2022/02/17 04:36:28;;;;;;;15.43;2.15;;;11.10;87.20;;;;;;5032341;28;20112;-75
2022/02/17 04:38:54;;;;;;;14.52;2.53;;;11.00;86.80;;;;;;5031871;28;20196;-74
2022/02/17 04:44:05;;;;;;;11.50;2.70;;;11.00;86.20;;;;;;5023711;28;20376;-75
2022/02/17 04:46:30;;;;;;;14.05;2.63;;;11.00;86.40;;;;;;4992300;28;20459;-75
2022/02/17 04:48:56;;;;;;;12.73;2.00;;;11.00;86.50;;;;;;4992499;28;20081;-74
2022/02/17 04:51:21;;;;;;;17.40;1.95;;;11.00;86.30;;;;;;4992751;28;20027;-75
2022/02/17 04:53:47;;;;;;;11.50;2.30;;;10.90;86.60;;;;;;4992024;28;20198;-75
2022/02/17 04:56:13;;;;;;;14.75;2.10;;;10.90;86.30;;;;;;4992389;28;20073;-74
2022/02/17 04:58:39;;;;;;;19.50;1.98;;;10.90;85.90;;;;;;4991092;28;20054;-75
2022/02/17 05:01:05;;;;;;;13.75;2.53;;;10.80;85.60;;;;;;4992146;28;20037;-75
2022/02/17 05:03:30;;;;;;;15.25;2.17;;;10.80;85.50;;;;;;4975337;28;20103;-74
2022/02/17 05:05:56;;;;;;;11.30;2.35;;;10.80;86.00;;;;;;4992049;28;20423;-74
2022/02/17 05:08:22;;;;;;;21.88;2.85;;;10.80;86.00;;;;;;4991746;28;20038;-75
2022/02/17 05:10:48;;;;;;;13.13;2.20;;;10.80;85.60;;;;;;4991951;28;20042;-75
2022/02/17 05:13:14;;;;;;;13.63;2.03;;;10.80;84.70;;;;;;4991770;28;20049;-75
2022/02/17 05:15:41;;;;;;;12.80;2.35;;;10.80;84.70;;;;;;4991710;28;20080;-76
2022/02/17 05:18:07;;;;;;;25.60;2.42;;;10.80;84.50;;;;;;4975021;28;20066;-75
2022/02/17 05:20:32;;;;;;;19.02;2.10;;;10.70;84.00;;;;;;4991270;28;20137;-75
2022/02/17 05:22:58;;;;;;;12.38;2.65;;;10.80;84.20;;;;;;4991843;28;20413;-75
2022/02/17 05:25:23;;;;;;;15.05;2.80;;;10.80;83.60;;;;;;4991611;28;20651;-75
2022/02/17 05:27:49;;;;;;;12.00;1.90;;;10.80;83.80;;;;;;4991494;28;20049;-73
2022/02/17 05:30:16;;;;;;;14.38;2.08;;;10.80;83.70;;;;;;4992018;28;20022;-75
2022/02/17 05:32:43;;;;;;;13.63;2.72;;;10.80;84.00;;;;;;4991710;28;20447;-76
2022/02/17 05:35:09;;;;;;;24.98;3.03;;;10.70;84.00;;;;;;4991525;28;20042;-76
2022/02/17 05:37:39;;;;;;;10.30;2.15;;;10.70;83.50;;;;;;4991685;28;20038;-76
2022/02/17 05:40:07;;;;;;;13.13;2.47;;;10.70;83.40;;;;;;4974167;28;20112;-77
2022/02/17 05:42:33;;;;;;;10.65;1.98;;;10.70;83.40;;;;;;4992851;28;20370;-76
2022/02/17 05:44:58;;;;;;;14.55;2.58;;;10.70;83.40;;;;;;4992578;28;20030;-76
2022/02/17 05:47:24;;;;;;;12.98;2.40;;;10.70;83.40;;;;;;4991616;28;20042;-75
2022/02/17 05:49:51;;;;;;;17.05;2.17;;;10.70;83.20;;;;;;4991626;28;20030;-76
2022/02/17 05:52:16;;;;;;;12.57;1.95;;;10.70;83.10;;;;;;4974434;28;20109;-77
2022/02/17 05:54:42;;;;;;;11.30;2.03;;;10.70;82.40;;;;;;4991472;28;20117;-75
2022/02/17 05:57:08;;;;;;;11.30;1.92;;;10.70;82.60;;;;;;4974610;28;20054;-74
2022/02/17 05:59:33;;;;;;;10.80;2.00;;;10.60;82.70;;;;;;4991629;28;20084;-74
2022/02/17 06:01:59;;;;;;;9.95;2.17;;;10.60;82.90;;;;;;4991362;28;20026;-75
2022/02/17 06:04:24;;;;;;;13.32;2.22;;;10.70;82.80;;;;;;4991322;28;20043;-75
2022/02/17 06:06:50;;;;;;;16.40;2.35;;;10.60;82.30;;;;;;4991306;28;20106;-75
2022/02/17 06:09:15;;;;;;;13.65;2.13;;;10.70;82.40;;;;;;4991757;28;20105;-74
2022/02/17 06:11:41;;;;;;;10.68;1.63;;;10.70;82.50;;;;;;4991286;28;20415;-75
2022/02/17 06:14:07;;;;;;;14.32;2.50;;;10.60;82.40;;;;;;4991065;28;20519;-75
2022/02/17 06:16:32;;;;;;;17.58;1.83;;;10.60;81.90;;;;;;4991259;28;20035;-75
2022/02/17 06:18:58;;;;;;;13.13;1.85;;;10.60;81.90;;;;;;4991175;28;20042;-75
2022/02/17 06:21:23;;;;;;;14.23;2.35;;;10.70;82.20;;;;;;4991452;28;20110;-74
2022/02/17 06:23:49;;;;;;;14.57;1.85;;;10.60;82.60;;;;;;4991439;28;20117;-74
2022/02/17 06:26:15;;;;;;;10.57;1.80;;;10.60;82.10;;;;;;4991318;28;20030;-74
2022/02/17 06:28:41;;;;;;;16.65;1.90;;;10.70;82.10;;;;;;4991140;28;20038;-72
2022/02/17 06:31:07;;;;;;;13.23;1.88;;;10.70;82.40;;;;;;4991601;28;20041;-73
2022/02/17 06:33:32;;;;;;;13.88;2.65;;;10.70;82.80;;;;;;4994007;28;20030;-72
2022/02/17 06:35:58;;;;;;;14.00;2.38;;;10.70;83.00;;;;;;4993944;28;20043;-74
2022/02/17 06:38:26;;;;;;;9.55;2.10;;;10.70;82.90;;;;;;4994966;28;20037;-74
2022/02/17 06:40:52;;;;;;;13.38;2.33;;;10.70;82.70;;;;;;4994791;28;20399;-74
2022/02/17 06:43:19;;;;;;;11.75;1.90;;;10.70;82.80;;;;;;4994536;28;20030;-75
2022/02/17 06:45:45;;;;;;;13.32;1.90;;;10.70;82.70;;;;;;4994783;28;20022;-75
2022/02/17 06:48:11;;;;;;;8.65;2.65;;;10.60;83.10;;;;;;4995273;28;20448;-75
2022/02/17 06:50:37;;;;;;;15.32;2.40;;;10.60;83.30;;;;;;4994813;28;20120;-73
2022/02/17 06:53:03;;;;;;;10.60;2.03;;;10.70;83.50;;;;;;4994737;28;20031;-75
2022/02/17 06:55:29;;;;;;;15.95;1.80;;;10.60;83.50;;;;;;4977344;28;20348;-76
2022/02/17 06:57:54;;;;;;;13.77;2.00;;;10.70;83.40;;;;;;4994489;28;20093;-73
2022/02/17 07:00:20;;;;;;;10.98;2.03;;;10.70;83.60;;;;;;4994846;28;20034;-75
2022/02/17 07:02:51;;;;;;;11.40;1.95;;;10.70;84.20;;;;;;4994516;28;20031;-75
2022/02/17 07:05:19;;;;;;;15.80;2.72;;;10.90;83.70;;;;;;4994219;28;20035;-73
2022/02/17 07:07:45;;;;;;;20.15;1.88;;;10.80;83.60;;;;;;4994453;28;20120;-74
2022/02/17 07:10:11;;;;;;;12.93;2.25;;;10.80;83.50;;;;;;4995239;28;20034;-73
2022/02/17 07:12:37;;;;;;;9.82;1.52;;;10.80;82.80;;;;;;4995535;28;20026;-74
2022/02/17 07:15:03;;;;;;;13.18;2.67;;;10.80;82.80;;;;;;4977632;28;20049;-75
2022/02/17 07:17:29;;;;;;;17.35;2.38;;;10.80;82.80;;;;;;4993239;28;20030;-73
2022/02/17 07:19:54;;;;;;;5.93;1.40;;;10.80;82.90;;;;;;4993661;28;20041;-72
2022/02/17 07:22:20;;;;;;;16.60;2.28;;;10.80;83.00;;;;;;4994719;28;20057;-77
2022/02/17 07:24:46;;;;;;;15.98;2.00;;;10.80;82.80;;;;;;4993941;28;20026;-74
2022/02/17 07:27:11;;;;;;;16.88;2.40;;;10.80;82.80;;;;;;4994502;28;20045;-75
2022/02/17 07:29:37;;;;;;;15.25;1.92;;;10.80;83.00;;;;;;4993679;28;20034;-74
2022/02/17 07:32:08;;;;;;;9.45;2.10;;;10.80;82.70;;;;;;4993312;28;20116;-73
2022/02/17 07:34:34;;;;;;;11.57;2.35;;;10.70;82.60;;;;;;4993750;28;20496;-74
2022/02/17 07:37:05;;;;;;;13.50;1.85;;;10.60;81.90;;;;;;4993633;28;20049;-74
2022/02/17 07:39:31;;;;;;;9.00;1.90;;;10.60;82.40;;;;;;4993853;28;20032;-74
2022/02/17 07:41:56;;;;;;;18.60;2.33;;;10.50;82.90;;;;;;5005761;28;20038;-73
2022/02/17 07:44:25;;;;;;;12.55;1.95;;;10.50;83.10;;;;;;5012668;28;20041;-73
2022/02/17 07:46:56;;;;;;;16.92;2.17;;;10.50;82.80;;;;;;5012824;28;20034;-76
2022/02/17 07:49:21;;;;;;;8.57;2.45;;;10.40;82.40;;;;;;5012698;28;20037;-73
2022/02/17 07:51:47;;;;;;;12.32;2.97;;;10.40;82.60;;;;;;5012558;28;20022;-77
2022/02/17 07:54:13;;;;;;;18.70;2.92;;;10.50;83.00;;;;;;5013604;28;20061;-76
2022/02/17 07:56:39;;;;;;;6.60;1.63;;;10.40;82.30;;;;;;5012530;28;20415;-77
2022/02/17 07:59:05;;;;;;;13.13;1.88;;;10.40;82.30;;;;;;5012566;28;20041;-76
2022/02/17 08:01:30;;;;;;;17.77;2.47;;;10.30;82.60;;;;;;4995618;28;20532;-74
2022/02/17 08:03:56;;;;;;;15.88;2.53;;;10.40;82.60;;;;;;5013542;28;20393;-76
2022/02/17 08:06:22;;;;;;;11.35;1.88;;;10.40;82.40;;;;;;5014374;28;20026;-75
2022/02/17 08:08:50;;;;;;;12.95;2.67;;;10.40;82.60;;;;;;4995248;28;20030;-77
2022/02/17 08:11:16;;;;;;;18.90;2.08;;;10.40;82.70;;;;;;5013075;28;20482;-78
2022/02/17 08:13:43;;;;;;;19.02;2.10;;;10.40;82.80;;;;;;5013059;28;20064;-76
2022/02/17 08:16:10;;;;;;;23.33;1.83;;;10.50;83.80;;;;;;5012709;28;20025;-74
2022/02/17 08:18:36;;;;;;;8.02;1.58;;;10.40;82.80;;;;;;5013972;28;20105;-76
2022/02/17 08:21:02;;;;;;;12.32;2.20;;;10.40;82.10;;;;;;5013866;28;20041;-78
2022/02/17 08:23:41;;;;;;;11.13;2.47;;;10.50;82.60;;;;;;4995847;28;20545;-77
2022/02/17 08:26:07;;;;;;;20.92;2.53;;;10.50;82.50;;;;;;5013070;28;20069;-73
2022/02/17 08:28:33;;;;;;;11.75;1.92;;;10.50;82.70;;;;;;5012613;28;20143;-78
2022/02/17 08:30:59;;;;;;;16.75;2.20;;;10.50;82.80;;;;;;5011926;28;20081;-78
2022/02/17 08:33:25;;;;;;;14.65;1.98;;;10.50;82.90;;;;;;5012138;28;20041;-77
2022/02/17 08:35:51;;;;;;;14.55;2.15;;;10.60;83.00;;;;;;5011888;28;20054;-77
2022/02/17 08:38:17;;;;;;;12.63;1.70;;;10.60;82.80;;;;;;5012657;28;20333;-77
2022/02/17 08:40:44;;;;;;;10.85;1.95;;;10.70;82.60;;;;;;5013219;28;20034;-75
2022/02/17 08:43:10;;;;;;;11.75;3.03;;;10.70;82.30;;;;;;5011929;28;20092;-76
2022/02/17 08:45:41;;;;;;;14.52;2.30;;;10.80;82.80;;;;;;5013125;28;20041;-76
2022/02/17 08:48:07;;;;;;;12.00;1.95;;;10.60;82.40;;;;;;4995256;28;20475;-76
2022/02/17 08:50:34;;;;;;;11.60;2.00;;;10.60;83.10;;;;;;5011632;28;20038;-77
2022/02/17 08:53:00;;;;;;;20.23;2.40;;;10.70;83.20;;;;;;5011711;28;20111;-77
2022/02/17 08:55:26;;;;;;;16.85;2.30;;;10.60;83.00;;;;;;5010917;28;20144;-78
2022/02/17 08:57:53;;;;;;;13.68;2.63;;;10.60;82.90;;;;;;5011536;28;20025;-75
2022/02/17 09:00:20;;;;;;;12.55;1.95;;;10.50;83.90;;;;;;4994437;28;20026;-75
2022/02/17 09:02:46;;;;;;;16.13;2.17;;;10.50;86.30;;;;;;5011925;28;20184;-74
2022/02/17 09:05:12;;;;;;;6.45;1.25;;;10.50;86.00;;;;;;5012412;28;20542;-76
2022/02/17 09:07:38;;;;;;;10.82;2.00;;;10.40;85.60;;;;;;5012541;28;20046;-78
2022/02/17 09:10:20;;;;;;;14.65;2.40;;;10.40;87.80;;;;;;4994863;28;20030;-76
2022/02/17 09:12:46;;;;;;;9.70;1.83;;;10.30;90.20;;;;;;5010991;28;20053;-77
2022/02/17 09:15:12;;;;;;;10.30;2.15;;;10.30;90.50;;;;;;5011592;28;20528;-76
2022/02/17 09:17:37;;;;;;;16.50;2.30;;;10.40;90.30;;;;;;5011364;28;20038;-78
2022/02/17 09:20:05;;;;;;;8.48;1.60;;;10.60;88.70;;;;;;5011068;28;20026;-77
2022/02/17 09:22:31;;;;;;;6.85;1.20;;;10.60;87.50;;;;;;5011122;28;20030;-77
2022/02/17 09:24:57;;;;;;;12.18;1.70;;;10.60;87.40;;;;;;5010983;28;20041;-76
2022/02/17 09:27:23;;;;;;;12.75;2.20;;;10.50;86.90;;;;;;5011551;28;20030;-79
2022/02/17 09:29:49;;;;;;;13.27;2.67;;;10.70;86.70;;;;;;5011315;28;20022;-76
2022/02/17 09:32:15;;;;;;;11.55;1.70;;;11.00;86.40;;;;;;5011427;28;20037;-75
2022/02/17 09:34:42;;;;;;;16.98;2.20;;;11.10;85.80;;;;;;5011288;28;20054;-75
2022/02/17 09:37:08;;;;;;;9.07;2.10;;;11.60;84.40;;;;;;4994889;28;20070;-80
2022/02/17 09:39:35;;;;;;;12.55;2.22;;;11.90;82.80;;;;;;5012660;28;20022;-74
2022/02/17 09:42:06;;;;;;;14.80;1.65;;;11.70;81.80;;;;;;5013004;28;20601;-74
2022/02/17 09:44:33;;;;;;;14.05;2.20;;;11.50;81.30;;;;;;5012782;28;20171;-74
2022/02/17 09:46:59;;;;;;;9.98;1.60;;;11.50;81.50;;;;;;4994707;28;20042;-74
2022/02/17 09:49:25;;;;;;;12.80;2.25;;;11.40;81.30;;;;;;5012535;28;20041;-76
2022/02/17 09:51:52;;;;;;;14.95;2.55;;;11.30;80.50;;;;;;5012335;28;20022;-75
2022/02/17 09:54:19;;;;;;;12.85;1.80;;;11.20;79.80;;;;;;5012919;28;20414;-77
2022/02/17 09:56:53;;;;;;;6.20;1.35;;;11.10;80.40;;;;;;4995053;28;20026;-75
2022/02/17 09:59:19;;;;;;;14.50;2.13;;;11.10;81.00;;;;;;5012325;28;20030;-75
2022/02/17 10:01:56;;;;;;;11.68;1.50;;;11.00;81.60;;;;;;4993671;28;20030;-74
2022/02/17 10:04:24;;;;;;;12.88;2.50;;;11.00;82.00;;;;;;5011971;28;20340;-76
2022/02/17 10:07:01;;;;;;;14.82;2.63;;;11.00;83.30;;;;;;5011538;28;20041;-76
2022/02/17 10:09:42;;;;;;;8.60;1.63;;;11.00;83.90;;;;;;5015591;28;20014;-77
2022/02/17 10:12:24;;;;;;;12.15;1.75;;;12.10;82.20;;;;;;4997968;28;20045;-74
2022/02/17 10:14:59;;;;;;;8.88;2.13;;;12.20;81.40;;;;;;5014946;28;20045;-76
2022/02/17 10:17:24;;;;;;;6.65;1.85;;;12.50;81.50;;;;;;5014944;28;20034;-74
2022/02/17 10:19:52;;;;;;;9.40;1.60;;;13.20;81.00;;;;;;5014639;28;20044;-74
2022/02/17 10:22:29;;;;;;;7.07;1.40;;;12.90;80.40;;;;;;5015041;28;20064;-76
2022/02/17 10:24:57;;;;;;;7.25;1.35;;;13.00;81.30;;;;;;5015064;28;20030;-75
2022/02/17 10:27:26;;;;;;;10.97;2.43;;;13.20;81.50;;;;;;4998775;28;20030;-76
2022/02/17 10:30:00;;;;;;;6.43;1.27;;;13.80;79.80;;;;;;5015563;28;20260;-74
2022/02/17 10:32:26;;;;;;;8.38;1.55;;;14.10;78.60;;;;;;4998692;28;20042;-75
2022/02/17 10:35:10;;;;;;;12.45;2.03;;;13.80;77.90;;;;;;5014680;28;20057;-77
2022/02/17 10:37:45;;;;;;;9.35;2.03;;;13.40;77.10;;;;;;5015196;28;20133;-78
2022/02/17 10:40:22;;;;;;;8.85;1.80;;;13.20;77.20;;;;;;5015390;28;20447;-76
2022/02/17 10:43:07;;;;;;;8.38;1.40;;;13.50;77.80;;;;;;5015242;28;20092;-74
2022/02/17 10:45:33;;;;;;;10.98;1.80;;;13.80;76.10;;;;;;4997365;28;20347;-75
2022/02/17 10:48:20;;;;;;;8.73;2.00;;;13.10;75.10;;;;;;5014430;28;20026;-74
2022/02/17 10:51:03;;;;;;;8.90;1.63;;;13.00;75.90;;;;;;5014105;28;20036;-78
2022/02/17 10:53:35;;;;;;;14.55;2.55;;;12.80;74.80;;;;;;5013963;28;20088;-74
2022/02/17 10:56:04;;;;;;;10.52;1.83;;;12.40;75.70;;;;;;5013554;28;20030;-75
2022/02/17 10:58:46;;;;;;;6.10;1.73;;;12.20;77.10;;;;;;5013745;28;20054;-74
2022/02/17 11:01:14;;;;;;;10.70;2.45;;;12.00;78.90;;;;;;4996106;28;20032;-76
2022/02/17 11:03:40;;;;;;;14.68;1.77;;;11.70;80.40;;;;;;5013489;28;20022;-74
2022/02/17 11:06:08;;;;;;;8.98;2.20;;;12.00;81.10;;;;;;5013948;28;20391;-77
2022/02/17 11:08:34;;;;;;;14.10;2.13;;;11.80;78.30;;;;;;4996086;28;20048;-80
2022/02/17 11:11:01;;;;;;;18.38;2.70;;;11.60;78.50;;;;;;5013228;28;20069;-77
2022/02/17 11:13:27;;;;;;;12.90;1.90;;;11.70;79.10;;;;;;4995967;28;20030;-74
2022/02/17 11:15:57;;;;;;;14.50;2.53;;;11.50;79.60;;;;;;5013273;28;20475;-78
2022/02/17 11:18:23;;;;;;;9.43;1.63;;;11.50;79.70;;;;;;5013206;28;20065;-76
2022/02/17 11:20:51;;;;;;;12.95;2.38;;;11.30;80.40;;;;;;5013171;28;20030;-77
2022/02/17 11:23:19;;;;;;;17.73;2.10;;;11.50;81.70;;;;;;5013164;28;20042;-76
2022/02/17 11:25:46;;;;;;;10.68;1.88;;;11.70;79.50;;;;;;4995230;28;20080;-78
2022/02/17 11:28:17;;;;;;;12.10;1.90;;;11.70;78.00;;;;;;4995351;28;20121;-76
2022/02/17 11:30:56;;;;;;;10.93;1.52;;;12.00;77.70;;;;;;5012861;28;20034;-72
2022/02/17 11:33:28;;;;;;;10.32;2.08;;;12.40;77.10;;;;;;5013128;28;20022;-73
2022/02/17 11:36:25;;;;;;;12.20;1.80;;;12.40;76.10;;;;;;5012515;28;20042;-72
2022/02/17 11:38:55;;;;;;;10.13;2.20;;;12.70;75.00;;;;;;5012828;28;20030;-72
2022/02/17 11:41:31;;;;;;;9.05;1.80;;;12.40;74.00;;;;;;5012585;28;20344;-72
2022/02/17 11:44:10;;;;;;;8.23;1.83;;;12.30;74.70;;;;;;4995144;28;20030;-71
2022/02/17 11:46:41;;;;;;;9.52;1.65;;;12.10;74.80;;;;;;5012558;28;20133;-72
2022/02/17 11:49:29;;;;;;;6.07;1.80;;;12.30;75.20;;;;;;5012375;28;20038;-74
2022/02/17 11:52:20;;;;;;;9.48;1.70;;;12.70;74.50;;;;;;4995011;28;20061;-74
2022/02/17 11:55:13;;;;;;;12.80;1.98;;;13.00;72.50;;;;;;5012651;28;20136;-74
2022/02/17 11:57:39;;;;;;;9.10;1.55;;;13.10;72.20;;;;;;5011918;28;20399;-72
2022/02/17 12:00:23;;;;;;;10.10;1.98;;;13.20;71.50;;;;;;4995503;28;20034;-72
2022/02/17 12:02:50;;;;;;;10.43;1.95;;;13.30;72.40;;;;;;5013651;28;20049;-76
2022/02/17 12:05:17;;;;;;;13.48;2.13;;;12.70;70.90;;;;;;4996381;28;20030;-79
2022/02/17 12:07:44;;;;;;;13.85;1.70;;;12.50;70.80;;;;;;5014337;28;20088;-78
2022/02/17 12:10:32;;;;;;;7.55;1.88;;;12.30;71.10;;;;;;5014255;28;20117;-79
2022/02/17 12:12:58;;;;;;;;;;;11.90;72.20;;;;;;5014271;28;20034;-78
2022/02/17 12:15:24;;;;;;;12.38;1.67;;;11.60;72.40;;;;;;5013403;28;19920;-76
2022/02/17 12:17:50;;;;;;;13.77;2.15;;;11.80;73.70;;;;;;5012629;28;20030;-76
2022/02/17 12:20:18;;;;;;;13.90;2.05;;;11.70;74.50;;;;;;5013738;28;20479;-75
2022/02/17 12:23:08;;;;;;;;;;;11.80;74.70;;;;;;5014338;28;20075;-78
2022/02/17 12:25:35;;;;;;;9.23;1.95;;;11.70;75.90;;;;;;5013911;28;19909;-79
2022/02/17 12:28:03;;;;;;;10.77;2.25;;;11.80;77.60;;;;;;5013541;28;20459;-75
2022/02/17 12:30:42;;;;;;;9.02;1.92;;;11.70;76.90;;;;;;5013075;28;20030;-79
2022/02/17 12:33:24;;;;;;;10.60;2.00;;;11.90;75.80;;;;;;5013482;28;20102;-75
2022/02/17 12:35:57;;;;;;;12.68;2.00;;;11.90;74.90;;;;;;5013568;28;20114;-77
2022/02/17 12:38:25;;;;;;;11.68;2.80;;;12.00;74.30;;;;;;5013218;28;20037;-76
2022/02/17 12:40:52;;;;;;;12.60;2.85;;;12.10;74.50;;;;;;5012395;28;20038;-76
2022/02/17 12:43:32;;;;;;;13.18;2.20;;;12.10;74.20;;;;;;5013015;28;20470;-78
2022/02/17 12:45:59;;;;;;;8.43;1.30;;;12.30;74.30;;;;;;5012841;28;20044;-77
2022/02/17 12:48:30;;;;;;;8.77;1.73;;;12.30;73.20;;;;;;4995935;28;20058;-78
2022/02/17 12:50:57;;;;;;;11.20;1.92;;;12.20;72.80;;;;;;5012845;28;20042;-76